KAUG/AUG METAR and TAF weather

Enter ICAO airport designator
Station Type Date Time Source
KAUG METAR 2021/09/28 16:53 UTC NOAA

KAUG 281653Z AUTO 00000KT 10SM FEW043 OVC055 18/12 A2982 RMK AO2 SLP098 T01780117


Station Type Date Time Source
KAUG Decoded METAR 2021/09/28 16:53 UTC NOAA

AUGUSTA STATE AIRPORT, ME, United States (KAUG) 44-19N 069-48W 109M
Sep 28, 2021 - 12:53 PM EDT / 2021.09.28 1653 UTC
Wind: Calm:0
Visibility: 10 mile(s):0
Sky conditions: overcast
Temperature: 64.0 F (17.8 C)
Dew Point: 53.1 F (11.7 C)
Relative Humidity: 67%
Pressure (altimeter): 29.82 in. Hg (1009 hPa)
ob: KAUG 281653Z AUTO 00000KT 10SM FEW043 OVC055 18/12 A2982 RMK AO2 SLP098 T01780117
cycle: 17

Station Type Date Time Source
KAUG TAF 2021/09/28 12:42 UTC NOAA

TAF KAUG 281139Z 2812/2912 31005KT P6SM VCSH BKN060
FM290200 34006G12KT P6SM SCT045
FM290600 35005KT P6SM SCT045

Example: see airport list